Terminal Aerodrome Forecast
Issued by NWS

Home | Current Version | Previous Version | Text Only | Print | Product List | Glossary On
Versions: 1 2 3 4 5 6 7 8 9 10 11 12 13 14 15 16 17
000
FTUS44 KCRP 222300
TAFLRD
TAF
KLRD 222330Z 2300/2324 16005KT P6SM SCT150
     FM230900 VRB03KT P6SM SCT012 BKN150
     FM231400 33011KT P6SM FEW030
     FM231600 33020G30KT P6SM FEW050=

USA.gov is the U.S. government's official web portal to all federal, state and local government web resources and services.